sensor_id;sensor_type;location;lat;lon;timestamp;pressure;altitude;pressure_sealevel;temperature;humidity
48668;BME280;34453;52.198;5.004;2023-05-21T00:01:02;102116.03;;;13.93;100.00
48668;BME280;34453;52.198;5.004;2023-05-21T00:03:30;102118.94;;;13.90;100.00
48668;BME280;34453;52.198;5.004;2023-05-21T00:05:56;102121.13;;;13.85;100.00
48668;BME280;34453;52.198;5.004;2023-05-21T00:08:22;102123.63;;;13.86;100.00
48668;BME280;34453;52.198;5.004;2023-05-21T00:10:47;102122.09;;;13.84;100.00
48668;BME280;34453;52.198;5.004;2023-05-21T00:13:13;102116.72;;;13.85;100.00
48668;BME280;34453;52.198;5.004;2023-05-21T00:15:38;102123.91;;;13.83;100.00
48668;BME280;34453;52.198;5.004;2023-05-21T00:18:04;102114.22;;;13.84;100.00
48668;BME280;34453;52.198;5.004;2023-05-21T00:20:30;102115.84;;;13.85;100.00
48668;BME280;34453;52.198;5.004;2023-05-21T00:22:57;102111.50;;;13.95;100.00
48668;BME280;34453;52.198;5.004;2023-05-21T00:25:22;102111.50;;;13.95;100.00
48668;BME280;34453;52.198;5.004;2023-05-21T00:27:48;102113.41;;;13.93;100.00
48668;BME280;34453;52.198;5.004;2023-05-21T00:30:13;102106.50;;;13.92;100.00
48668;BME280;34453;52.198;5.004;2023-05-21T00:32:40;102106.50;;;13.92;100.00
48668;BME280;34453;52.198;5.004;2023-05-21T00:35:06;102116.03;;;13.93;100.00
48668;BME280;34453;52.198;5.004;2023-05-21T00:37:32;102110.66;;;13.95;100.00
48668;BME280;34453;52.198;5.004;2023-05-21T00:39:59;102112.63;;;14.02;100.00
48668;BME280;34453;52.198;5.004;2023-05-21T00:42:26;102107.81;;;14.07;100.00
48668;BME280;34453;52.198;5.004;2023-05-21T00:44:52;102106.31;;;14.15;100.00
48668;BME280;34453;52.198;5.004;2023-05-21T00:47:18;102102.69;;;14.16;100.00
48668;BME280;34453;52.198;5.004;2023-05-21T00:49:46;102097.72;;;14.13;100.00
48668;BME280;34453;52.198;5.004;2023-05-21T00:52:13;102099.09;;;14.17;100.00
48668;BME280;34453;52.198;5.004;2023-05-21T00:54:39;102093.97;;;14.15;100.00
48668;BME280;34453;52.198;5.004;2023-05-21T00:57:05;102100.75;;;14.18;100.00
48668;BME280;34453;52.198;5.004;2023-05-21T00:59:31;102102.16;;;14.22;100.00
48668;BME280;34453;52.198;5.004;2023-05-21T01:01:57;102096.47;;;14.17;100.00
48668;BME280;34453;52.198;5.004;2023-05-21T01:04:29;102090.22;;;14.18;100.00
48668;BME280;34453;52.198;5.004;2023-05-21T01:06:55;102080.22;;;14.12;100.00
48668;BME280;34453;52.198;5.004;2023-05-21T01:09:23;102087.47;;;14.09;100.00
48668;BME280;34453;52.198;5.004;2023-05-21T01:11:50;102083.84;;;14.10;100.00
48668;BME280;34453;52.198;5.004;2023-05-21T01:14:17;102075.81;;;14.12;100.00
48668;BME280;34453;52.198;5.004;2023-05-21T01:16:44;102072.78;;;14.17;100.00
48668;BME280;34453;52.198;5.004;2023-05-21T01:19:15;102079.84;;;14.16;100.00
48668;BME280;34453;52.198;5.004;2023-05-21T01:21:44;102072.38;;;14.21;100.00
48668;BME280;34453;52.198;5.004;2023-05-21T01:24:09;102067.25;;;14.20;100.00
48668;BME280;34453;52.198;5.004;2023-05-21T01:26:35;102063.66;;;14.21;100.00
48668;BME280;34453;52.198;5.004;2023-05-21T01:29:06;102064.38;;;14.23;100.00
48668;BME280;34453;52.198;5.004;2023-05-21T01:34:16;102076.53;;;14.24;100.00
48668;BME280;34453;52.198;5.004;2023-05-21T01:36:50;102060.63;;;14.25;100.00
48668;BME280;34453;52.198;5.004;2023-05-21T01:39:22;102055.59;;;14.22;100.00
48668;BME280;34453;52.198;5.004;2023-05-21T01:41:52;102063.38;;;14.24;100.00
48668;BME280;34453;52.198;5.004;2023-05-21T01:44:19;102060.47;;;14.27;100.00
48668;BME280;34453;52.198;5.004;2023-05-21T01:46:46;102061.03;;;14.30;100.00
48668;BME280;34453;52.198;5.004;2023-05-21T01:49:13;102054.78;;;14.31;100.00
48668;BME280;34453;52.198;5.004;2023-05-21T01:51:39;102057.59;;;14.30;100.00
48668;BME280;34453;52.198;5.004;2023-05-21T01:54:05;102058.13;;;14.34;100.00
48668;BME280;34453;52.198;5.004;2023-05-21T01:56:30;102046.78;;;14.33;100.00
48668;BME280;34453;52.198;5.004;2023-05-21T01:58:58;102053.72;;;14.34;100.00
48668;BME280;34453;52.198;5.004;2023-05-21T02:01:24;102057.16;;;14.35;100.00
48668;BME280;34453;52.198;5.004;2023-05-21T02:03:51;102062.03;;;14.39;100.00
48668;BME280;34453;52.198;5.004;2023-05-21T02:06:16;102070.06;;;14.38;100.00
48668;BME280;34453;52.198;5.004;2023-05-21T02:08:42;102060.91;;;14.32;100.00
48668;BME280;34453;52.198;5.004;2023-05-21T02:11:12;102063.25;;;14.35;100.00
48668;BME280;34453;52.198;5.004;2023-05-21T02:13:37;102069.22;;;14.37;100.00
48668;BME280;34453;52.198;5.004;2023-05-21T02:16:07;102071.16;;;14.35;100.00
48668;BME280;34453;52.198;5.004;2023-05-21T02:18:40;102067.56;;;14.36;100.00
48668;BME280;34453;52.198;5.004;2023-05-21T02:21:09;102073.50;;;14.38;100.00
48668;BME280;34453;52.198;5.004;2023-05-21T02:23:37;102071.56;;;14.40;100.00
48668;BME280;34453;52.198;5.004;2023-05-21T02:26:03;102062.84;;;14.40;100.00
48668;BME280;34453;52.198;5.004;2023-05-21T02:28:29;102058.41;;;14.40;100.00
48668;BME280;34453;52.198;5.004;2023-05-21T02:30:55;102062.03;;;14.39;100.00
48668;BME280;34453;52.198;5.004;2023-05-21T02:33:20;102068.94;;;14.40;100.00
48668;BME280;34453;52.198;5.004;2023-05-21T02:35:46;102072.56;;;14.39;100.00
48668;BME280;34453;52.198;5.004;2023-05-21T02:38:12;102073.50;;;14.38;100.00
48668;BME280;34453;52.198;5.004;2023-05-21T02:40:38;102073.91;;;14.34;100.00
48668;BME280;34453;52.198;5.004;2023-05-21T02:43:04;102063.09;;;14.27;100.00
48668;BME280;34453;52.198;5.004;2023-05-21T02:45:29;102063.66;;;14.30;100.00
48668;BME280;34453;52.198;5.004;2023-05-21T02:47:55;102057.72;;;14.28;100.00
48668;BME280;34453;52.198;5.004;2023-05-21T02:50:20;102064.78;;;14.28;100.00
48668;BME280;34453;52.198;5.004;2023-05-21T02:52:47;102066.44;;;14.29;100.00
48668;BME280;34453;52.198;5.004;2023-05-21T02:55:13;102072.28;;;14.33;100.00
48668;BME280;34453;52.198;5.004;2023-05-21T02:57:38;102070.47;;;14.33;100.00
48668;BME280;34453;52.198;5.004;2023-05-21T03:00:04;102068.41;;;14.37;100.00
48668;BME280;34453;52.198;5.004;2023-05-21T03:02:33;102068.13;;;14.30;100.00
48668;BME280;34453;52.198;5.004;2023-05-21T03:04:58;102068.13;;;14.30;100.00
48668;BME280;34453;52.198;5.004;2023-05-21T03:07:24;102074.47;;;14.27;100.00
48668;BME280;34453;52.198;5.004;2023-05-21T03:09:50;102060.06;;;14.22;100.00
48668;BME280;34453;52.198;5.004;2023-05-21T03:12:15;102068.94;;;14.21;100.00
48668;BME280;34453;52.198;5.004;2023-05-21T03:14:41;102058.94;;;14.24;100.00
48668;BME280;34453;52.198;5.004;2023-05-21T03:17:10;102055.91;;;14.19;100.00
48668;BME280;34453;52.198;5.004;2023-05-21T03:19:39;102067.94;;;14.22;100.00
48668;BME280;34453;52.198;5.004;2023-05-21T03:22:05;102058.25;;;14.22;100.00
48668;BME280;34453;52.198;5.004;2023-05-21T03:24:30;102065.03;;;14.25;100.00
48668;BME280;34453;52.198;5.004;2023-05-21T03:27:00;102057.84;;;14.27;100.00
48668;BME280;34453;52.198;5.004;2023-05-21T03:29:25;102060.91;;;14.32;100.00
48668;BME280;34453;52.198;5.004;2023-05-21T03:31:52;102056.47;;;14.33;100.00
48668;BME280;34453;52.198;5.004;2023-05-21T03:34:18;102056.06;;;14.37;100.00
48668;BME280;34453;52.198;5.004;2023-05-21T03:36:44;102054.25;;;14.38;100.00
48668;BME280;34453;52.198;5.004;2023-05-21T03:39:10;102057.03;;;14.36;100.00
48668;BME280;34453;52.198;5.004;2023-05-21T03:41:36;102056.47;;;14.33;100.00
48668;BME280;34453;52.198;5.004;2023-05-21T03:44:01;102051.50;;;14.29;100.00
48668;BME280;34453;52.198;5.004;2023-05-21T03:46:27;102051.88;;;14.25;100.00
48668;BME280;34453;52.198;5.004;2023-05-21T03:48:52;102044.66;;;14.27;100.00
48668;BME280;34453;52.198;5.004;2023-05-21T03:51:18;102058.97;;;14.34;100.00
48668;BME280;34453;52.198;5.004;2023-05-21T03:53:44;102055.94;;;14.39;100.00
48668;BME280;34453;52.198;5.004;2023-05-21T03:56:10;102052.59;;;14.37;100.00
48668;BME280;34453;52.198;5.004;2023-05-21T03:58:35;102050.91;;;14.36;100.00
48668;BME280;34453;52.198;5.004;2023-05-21T04:01:01;102054.41;;;14.36;100.00
48668;BME280;34453;52.198;5.004;2023-05-21T04:03:29;102050.38;;;14.32;100.00
48668;BME280;34453;52.198;5.004;2023-05-21T04:05:54;102053.00;;;14.32;100.00
48668;BME280;34453;52.198;5.004;2023-05-21T04:08:20;102051.09;;;14.34;100.00
48668;BME280;34453;52.198;5.004;2023-05-21T04:10:46;102054.94;;;14.40;100.00
48668;BME280;34453;52.198;5.004;2023-05-21T04:13:11;102053.16;;;14.40;100.00
48668;BME280;34453;52.198;5.004;2023-05-21T04:15:37;102054.53;;;14.44;100.00
48668;BME280;34453;52.198;5.004;2023-05-21T04:18:03;102062.31;;;14.46;100.00
48668;BME280;34453;52.198;5.004;2023-05-21T04:20:28;102061.50;;;14.45;100.00
48668;BME280;34453;52.198;5.004;2023-05-21T04:22:54;102065.06;;;14.44;100.00
48668;BME280;34453;52.198;5.004;2023-05-21T04:25:19;102055.38;;;14.45;100.00
48668;BME280;34453;52.198;5.004;2023-05-21T04:27:47;102058.56;;;14.48;100.00
48668;BME280;34453;52.198;5.004;2023-05-21T04:30:14;102051.66;;;14.47;100.00
48668;BME280;34453;52.198;5.004;2023-05-21T04:32:39;102057.34;;;14.52;100.00
48668;BME280;34453;52.198;5.004;2023-05-21T04:35:05;102050.38;;;14.51;100.00
48668;BME280;34453;52.198;5.004;2023-05-21T04:37:30;102057.59;;;14.49;100.00
48668;BME280;34453;52.198;5.004;2023-05-21T04:39:59;102056.50;;;14.52;100.00
48668;BME280;34453;52.198;5.004;2023-05-21T04:42:25;102059.97;;;14.52;100.00
48668;BME280;34453;52.198;5.004;2023-05-21T04:44:51;102062.34;;;14.56;100.00
48668;BME280;34453;52.198;5.004;2023-05-21T04:47:19;102063.16;;;14.56;100.00
48668;BME280;34453;52.198;5.004;2023-05-21T04:49:45;102066.38;;;14.60;100.00
48668;BME280;34453;52.198;5.004;2023-05-21T04:52:15;102058.19;;;14.63;100.00
48668;BME280;34453;52.198;5.004;2023-05-21T04:54:41;102060.81;;;14.63;100.00
48668;BME280;34453;52.198;5.004;2023-05-21T04:57:07;102061.25;;;14.68;100.00
48668;BME280;34453;52.198;5.004;2023-05-21T04:59:32;102057.09;;;14.65;100.00
48668;BME280;34453;52.198;5.004;2023-05-21T05:01:58;102065.13;;;14.64;100.00
48668;BME280;34453;52.198;5.004;2023-05-21T05:04:23;102074.13;;;14.71;100.00
48668;BME280;34453;52.198;5.004;2023-05-21T05:06:49;102060.28;;;14.69;100.00
48668;BME280;34453;52.198;5.004;2023-05-21T05:09:16;102073.19;;;14.72;100.00
48668;BME280;34453;52.198;5.004;2023-05-21T05:11:41;102072.91;;;14.75;100.00
48668;BME280;34453;52.198;5.004;2023-05-21T05:14:06;102065.00;;;14.75;100.00
48668;BME280;34453;52.198;5.004;2023-05-21T05:16:32;102072.91;;;14.75;100.00
48668;BME280;34453;52.198;5.004;2023-05-21T05:18:59;102062.22;;;14.67;100.00
48668;BME280;34453;52.198;5.004;2023-05-21T05:21:25;102069.97;;;14.68;100.00
48668;BME280;34453;52.198;5.004;2023-05-21T05:23:50;102068.88;;;14.71;100.00
48668;BME280;34453;52.198;5.004;2023-05-21T05:26:16;102072.91;;;14.75;100.00
48668;BME280;34453;52.198;5.004;2023-05-21T05:28:41;102065.81;;;14.76;100.00
48668;BME280;34453;52.198;5.004;2023-05-21T05:31:07;102068.19;;;14.79;100.00
48668;BME280;34453;52.198;5.004;2023-05-21T05:33:32;102058.19;;;14.82;100.00
48668;BME280;34453;52.198;5.004;2023-05-21T05:35:58;102058.06;;;14.84;100.00
48668;BME280;34453;52.198;5.004;2023-05-21T05:38:24;102053.34;;;14.87;100.00
48668;BME280;34453;52.198;5.004;2023-05-21T05:40:50;102051.25;;;14.91;100.00
48668;BME280;34453;52.198;5.004;2023-05-21T05:43:15;102056.25;;;14.94;100.00
48668;BME280;34453;52.198;5.004;2023-05-21T05:45:41;102050.69;;;14.97;100.00
48668;BME280;34453;52.198;5.004;2023-05-21T05:48:06;102050.41;;;15.00;100.00
48668;BME280;34453;52.198;5.004;2023-05-21T05:50:32;102045.69;;;15.04;100.00
48668;BME280;34453;52.198;5.004;2023-05-21T05:52:57;102055.25;;;15.05;100.00
48668;BME280;34453;52.198;5.004;2023-05-21T05:55:22;102046.00;;;15.01;100.00
48668;BME280;34453;52.198;5.004;2023-05-21T05:57:49;102048.63;;;14.91;100.00
48668;BME280;34453;52.198;5.004;2023-05-21T06:00:15;102047.25;;;14.97;100.00
48668;BME280;34453;52.198;5.004;2023-05-21T06:02:40;102049.19;;;14.95;100.00
48668;BME280;34453;52.198;5.004;2023-05-21T06:05:06;102052.78;;;15.03;100.00
48668;BME280;34453;52.198;5.004;2023-05-21T06:07:32;102052.91;;;15.02;100.00
48668;BME280;34453;52.198;5.004;2023-05-21T06:09:58;102042.09;;;14.95;100.00
48668;BME280;34453;52.198;5.004;2023-05-21T06:12:24;102040.44;;;14.94;100.00
48668;BME280;34453;52.198;5.004;2023-05-21T06:14:50;102042.53;;;14.90;100.00
48668;BME280;34453;52.198;5.004;2023-05-21T06:17:15;102048.50;;;14.92;100.00
48668;BME280;34453;52.198;5.004;2023-05-21T06:19:41;102045.56;;;14.96;100.00
48668;BME280;34453;52.198;5.004;2023-05-21T06:22:06;102054.84;;;15.00;100.00
48668;BME280;34453;52.198;5.004;2023-05-21T06:24:32;102035.44;;;15.01;100.00
48668;BME280;34453;52.198;5.004;2023-05-21T06:26:57;102034.88;;;15.07;100.00
48668;BME280;34453;52.198;5.004;2023-05-21T06:29:22;102037.50;;;15.07;100.00
48668;BME280;34453;52.198;5.004;2023-05-21T06:31:48;102041.53;;;15.11;100.00
48668;BME280;34453;52.198;5.004;2023-05-21T06:34:13;102035.84;;;15.06;100.00
48668;BME280;34453;52.198;5.004;2023-05-21T06:36:39;102039.56;;;15.13;100.00
48668;BME280;34453;52.198;5.004;2023-05-21T06:39:05;102041.53;;;15.21;100.00
48668;BME280;34453;52.198;5.004;2023-05-21T06:41:30;102041.47;;;15.30;100.00
48668;BME280;34453;52.198;5.004;2023-05-21T06:43:56;102043.38;;;15.38;100.00
48668;BME280;34453;52.198;5.004;2023-05-21T06:46:21;102042.31;;;15.41;100.00
48668;BME280;34453;52.198;5.004;2023-05-21T06:48:47;102045.03;;;15.49;100.00
48668;BME280;34453;52.198;5.004;2023-05-21T06:51:12;102039.56;;;15.60;100.00
48668;BME280;34453;52.198;5.004;2023-05-21T06:53:38;102035.81;;;15.63;100.00
48668;BME280;34453;52.198;5.004;2023-05-21T06:56:03;102037.06;;;15.68;100.00
48668;BME280;34453;52.198;5.004;2023-05-21T06:58:29;102032.88;;;15.75;100.00
48668;BME280;34453;52.198;5.004;2023-05-21T07:00:59;102032.31;;;15.82;100.00
48668;BME280;34453;52.198;5.004;2023-05-21T07:03:25;102037.94;;;15.97;100.00
48668;BME280;34453;52.198;5.004;2023-05-21T07:05:52;102032.03;;;16.03;100.00
48668;BME280;34453;52.198;5.004;2023-05-21T07:08:17;102032.56;;;16.06;100.00
48668;BME280;34453;52.198;5.004;2023-05-21T07:10:44;102025.13;;;16.20;100.00
48668;BME280;34453;52.198;5.004;2023-05-21T07:13:10;102018.84;;;16.21;100.00
48668;BME280;34453;52.198;5.004;2023-05-21T07:15:36;102030.97;;;16.23;100.00
48668;BME280;34453;52.198;5.004;2023-05-21T07:18:01;102019.63;;;16.31;100.00
48668;BME280;34453;52.198;5.004;2023-05-21T07:20:27;102028.00;;;16.44;100.00
48668;BME280;34453;52.198;5.004;2023-05-21T07:22:53;102030.28;;;16.57;100.00
48668;BME280;34453;52.198;5.004;2023-05-21T07:25:18;102037.16;;;16.68;100.00
48668;BME280;34453;52.198;5.004;2023-05-21T07:27:44;102034.56;;;16.76;100.00
48668;BME280;34453;52.198;5.004;2023-05-21T07:30:09;102027.31;;;16.78;100.00
48668;BME280;34453;52.198;5.004;2023-05-21T07:32:35;102032.03;;;16.84;100.00
48668;BME280;34453;52.198;5.004;2023-05-21T07:35:00;102024.63;;;16.88;100.00
48668;BME280;34453;52.198;5.004;2023-05-21T07:37:26;102024.38;;;16.99;100.00
48668;BME280;34453;52.198;5.004;2023-05-21T07:39:53;102031.22;;;17.10;100.00
48668;BME280;34453;52.198;5.004;2023-05-21T07:42:19;102019.34;;;17.14;100.00
48668;BME280;34453;52.198;5.004;2023-05-21T07:44:44;102016.28;;;17.27;100.00
48668;BME280;34453;52.198;5.004;2023-05-21T07:47:10;102020.41;;;17.29;100.00
48668;BME280;34453;52.198;5.004;2023-05-21T07:49:35;102021.91;;;17.32;100.00
48668;BME280;34453;52.198;5.004;2023-05-21T07:52:01;102012.94;;;17.51;100.00
48668;BME280;34453;52.198;5.004;2023-05-21T07:54:27;102004.19;;;17.58;100.00
48668;BME280;34453;52.198;5.004;2023-05-21T07:56:52;102003.41;;;17.66;100.00
48668;BME280;34453;52.198;5.004;2023-05-21T07:59:17;102013.03;;;17.75;100.00
48668;BME280;34453;52.198;5.004;2023-05-21T08:01:43;102008.75;;;17.74;100.00
48668;BME280;34453;52.198;5.004;2023-05-21T08:04:08;102001.72;;;17.57;100.00
48668;BME280;34453;52.198;5.004;2023-05-21T08:06:34;102000.72;;;17.50;100.00
48668;BME280;34453;52.198;5.004;2023-05-21T08:09:02;102009.75;;;17.47;100.00
48668;BME280;34453;52.198;5.004;2023-05-21T08:11:27;102008.00;;;17.56;100.00
48668;BME280;34453;52.198;5.004;2023-05-21T08:13:53;102011.88;;;17.70;100.00
48668;BME280;34453;52.198;5.004;2023-05-21T08:16:19;102002.53;;;17.84;100.00
48668;BME280;34453;52.198;5.004;2023-05-21T08:18:45;102005.16;;;17.92;100.00
48668;BME280;34453;52.198;5.004;2023-05-21T08:21:10;102001.69;;;17.83;100.00
48668;BME280;34453;52.198;5.004;2023-05-21T08:23:36;102005.50;;;17.89;100.00
48668;BME280;34453;52.198;5.004;2023-05-21T08:26:02;102012.09;;;17.85;100.00
48668;BME280;34453;52.198;5.004;2023-05-21T08:28:27;102003.66;;;17.81;100.00
48668;BME280;34453;52.198;5.004;2023-05-21T08:30:53;102000.53;;;17.86;100.00
48668;BME280;34453;52.198;5.004;2023-05-21T08:33:19;101999.88;;;17.84;100.00
48668;BME280;34453;52.198;5.004;2023-05-21T08:35:44;102000.25;;;17.97;100.00
48668;BME280;34453;52.198;5.004;2023-05-21T08:38:10;102002.09;;;18.13;100.00
48668;BME280;34453;52.198;5.004;2023-05-21T08:40:35;102007.91;;;18.25;100.00
48668;BME280;34453;52.198;5.004;2023-05-21T08:43:01;102001.94;;;18.22;100.00
48668;BME280;34453;52.198;5.004;2023-05-21T08:45:33;102006.59;;;18.29;100.00
48668;BME280;34453;52.198;5.004;2023-05-21T08:48:01;102005.94;;;18.35;100.00
48668;BME280;34453;52.198;5.004;2023-05-21T08:50:28;102014.06;;;18.41;100.00
48668;BME280;34453;52.198;5.004;2023-05-21T08:52:53;101997.84;;;18.53;100.00
48668;BME280;34453;52.198;5.004;2023-05-21T08:55:20;102006.44;;;18.63;100.00
48668;BME280;34453;52.198;5.004;2023-05-21T08:57:46;101994.03;;;18.80;100.00
48668;BME280;34453;52.198;5.004;2023-05-21T09:00:12;101997.00;;;18.69;100.00
48668;BME280;34453;52.198;5.004;2023-05-21T09:02:38;101996.34;;;18.67;100.00
48668;BME280;34453;52.198;5.004;2023-05-21T09:05:09;101999.97;;;18.57;100.00
48668;BME280;34453;52.198;5.004;2023-05-21T09:07:57;101997.66;;;18.46;100.00
48668;BME280;34453;52.198;5.004;2023-05-21T09:10:29;101982.75;;;18.53;100.00
48668;BME280;34453;52.198;5.004;2023-05-21T09:12:58;101986.72;;;18.33;100.00
48668;BME280;34453;52.198;5.004;2023-05-21T09:15:24;101989.69;;;18.38;100.00
48668;BME280;34453;52.198;5.004;2023-05-21T09:17:49;101990.22;;;18.41;100.00
48668;BME280;34453;52.198;5.004;2023-05-21T09:20:15;101996.34;;;18.50;100.00
48668;BME280;34453;52.198;5.004;2023-05-21T09:22:46;101987.06;;;18.54;100.00
48668;BME280;34453;52.198;5.004;2023-05-21T09:25:13;101990.69;;;18.53;100.00
48668;BME280;34453;52.198;5.004;2023-05-21T09:27:40;101984.06;;;18.74;100.00
48668;BME280;34453;52.198;5.004;2023-05-21T09:30:13;101975.44;;;18.72;100.00
48668;BME280;34453;52.198;5.004;2023-05-21T09:32:39;101980.94;;;18.78;100.00
48668;BME280;34453;52.198;5.004;2023-05-21T09:35:07;101981.44;;;18.82;100.00
48668;BME280;34453;52.198;5.004;2023-05-21T09:37:40;101982.06;;;19.00;100.00
48668;BME280;34453;52.198;5.004;2023-05-21T09:40:15;101982.06;;;19.00;100.00
48668;BME280;34453;52.198;5.004;2023-05-21T09:42:51;101979.41;;;19.00;100.00
48668;BME280;34453;52.198;5.004;2023-05-21T09:45:22;101986.34;;;19.18;100.00
48668;BME280;34453;52.198;5.004;2023-05-21T09:47:50;101978.38;;;19.18;100.00
48668;BME280;34453;52.198;5.004;2023-05-21T09:50:19;101964.59;;;19.31;100.00
48668;BME280;34453;52.198;5.004;2023-05-21T09:52:45;101971.94;;;19.12;100.00
48668;BME280;34453;52.198;5.004;2023-05-21T09:55:12;101967.63;;;19.19;100.00
48668;BME280;34453;52.198;5.004;2023-05-21T09:57:42;101971.38;;;19.25;100.00
48668;BME280;34453;52.198;5.004;2023-05-21T10:00:15;101961.94;;;19.22;100.00
48668;BME280;34453;52.198;5.004;2023-05-21T10:02:44;101971.53;;;19.32;100.00
48668;BME280;34453;52.198;5.004;2023-05-21T10:05:15;101971.66;;;19.46;100.00
48668;BME280;34453;52.198;5.004;2023-05-21T10:07:48;101961.47;;;19.58;100.00
48668;BME280;34453;52.198;5.004;2023-05-21T10:10:14;101960.06;;;19.48;100.00
48668;BME280;34453;52.198;5.004;2023-05-21T10:12:45;101956.69;;;19.54;100.00
48668;BME280;34453;52.198;5.004;2023-05-21T10:15:15;101957.34;;;19.56;100.00
48668;BME280;34453;52.198;5.004;2023-05-21T10:17:42;101958.66;;;19.60;100.00
48668;BME280;34453;52.198;5.004;2023-05-21T10:20:11;101953.69;;;19.57;100.00
48668;BME280;34453;52.198;5.004;2023-05-21T10:22:38;101967.28;;;19.62;100.00
48668;BME280;34453;52.198;5.004;2023-05-21T10:25:06;101949.97;;;19.74;100.00
48668;BME280;34453;52.198;5.004;2023-05-21T10:27:32;101957.44;;;19.79;100.00
48668;BME280;34453;52.198;5.004;2023-05-21T10:29:59;101959.59;;;19.75;100.00
48668;BME280;34453;52.198;5.004;2023-05-21T10:32:25;101961.22;;;19.84;100.00
48668;BME280;34453;52.198;5.004;2023-05-21T10:34:54;101947.75;;;20.09;100.00
48668;BME280;34453;52.198;5.004;2023-05-21T10:37:25;101946.00;;;20.24;100.00
48668;BME280;34453;52.198;5.004;2023-05-21T10:39:52;101948.16;;;20.44;100.00
48668;BME280;34453;52.198;5.004;2023-05-21T10:45:22;101954.50;;;19.97;100.00
48668;BME280;34453;52.198;5.004;2023-05-21T10:56:45;101946.44;;;19.42;100.00
48668;BME280;34453;52.198;5.004;2023-05-21T10:59:44;101944.47;;;19.44;100.00
48668;BME280;34453;52.198;5.004;2023-05-21T11:02:13;101945.09;;;19.55;100.00
48668;BME280;34453;52.198;5.004;2023-05-21T11:04:40;101935.66;;;19.52;100.00
48668;BME280;34453;52.198;5.004;2023-05-21T11:07:11;101944.25;;;19.54;100.00
48668;BME280;34453;52.198;5.004;2023-05-21T11:09:38;101952.00;;;19.72;100.00
48668;BME280;34453;52.198;5.004;2023-05-21T11:12:04;101941.03;;;19.98;100.00
48668;BME280;34453;52.198;5.004;2023-05-21T11:17:03;101927.44;;;20.16;100.00
48668;BME280;34453;52.198;5.004;2023-05-21T11:19:42;101933.34;;;20.26;100.00
48668;BME280;34453;52.198;5.004;2023-05-21T11:22:29;101940.69;;;20.24;100.00
48668;BME280;34453;52.198;5.004;2023-05-21T11:24:55;101921.84;;;20.11;100.00
48668;BME280;34453;52.198;5.004;2023-05-21T11:27:35;101925.81;;;20.15;100.00
48668;BME280;34453;52.198;5.004;2023-05-21T11:30:05;101908.78;;;20.24;100.00
48668;BME280;34453;52.198;5.004;2023-05-21T11:32:36;101916.25;;;20.44;100.00
48668;BME280;34453;52.198;5.004;2023-05-21T11:35:03;101910.47;;;20.78;100.00
48668;BME280;34453;52.198;5.004;2023-05-21T11:37:30;101903.97;;;20.96;100.00
48668;BME280;34453;52.198;5.004;2023-05-21T11:40:21;101900.75;;;21.15;100.00
48668;BME280;34453;52.198;5.004;2023-05-21T11:42:50;101905.25;;;21.15;100.00
48668;BME280;34453;52.198;5.004;2023-05-21T11:45:18;101903.22;;;21.02;100.00
48668;BME280;34453;52.198;5.004;2023-05-21T11:47:46;101895.25;;;21.17;100.00
48668;BME280;34453;52.198;5.004;2023-05-21T11:50:13;101902.41;;;20.86;100.00
48668;BME280;34453;52.198;5.004;2023-05-21T11:52:40;101897.19;;;20.63;100.00
48668;BME280;34453;52.198;5.004;2023-05-21T11:55:07;101894.41;;;20.72;100.00
48668;BME280;34453;52.198;5.004;2023-05-21T11:57:33;101894.63;;;20.70;100.00
48668;BME280;34453;52.198;5.004;2023-05-21T12:00:01;101890.00;;;21.08;100.00
48668;BME280;34453;52.198;5.004;2023-05-21T12:02:33;101884.19;;;21.35;100.00
48668;BME280;34453;52.198;5.004;2023-05-21T12:04:59;101883.19;;;21.21;100.00
48668;BME280;34453;52.198;5.004;2023-05-21T12:07:28;101879.38;;;21.08;100.00
48668;BME280;34453;52.198;5.004;2023-05-21T12:09:55;101880.19;;;21.09;100.00
48668;BME280;34453;52.198;5.004;2023-05-21T12:12:23;101871.88;;;21.33;100.00
48668;BME280;34453;52.198;5.004;2023-05-21T12:14:51;101870.34;;;21.61;100.00
48668;BME280;34453;52.198;5.004;2023-05-21T12:17:19;101871.56;;;21.58;100.00
48668;BME280;34453;52.198;5.004;2023-05-21T12:19:47;101880.97;;;21.39;100.00
48668;BME280;34453;52.198;5.004;2023-05-21T12:22:13;101865.44;;;21.58;100.00
48668;BME280;34453;52.198;5.004;2023-05-21T12:24:43;101867.34;;;21.64;100.00
48668;BME280;34453;52.198;5.004;2023-05-21T12:27:10;101869.72;;;21.59;100.00
48668;BME280;34453;52.198;5.004;2023-05-21T12:29:42;101857.56;;;21.92;100.00
48668;BME280;34453;52.198;5.004;2023-05-21T12:32:13;101860.75;;;21.81;100.00
48668;BME280;34453;52.198;5.004;2023-05-21T12:34:50;101861.19;;;21.63;100.00
48668;BME280;34453;52.198;5.004;2023-05-21T12:37:30;101870.56;;;21.59;100.00
48668;BME280;34453;52.198;5.004;2023-05-21T12:40:02;101864.59;;;21.79;100.00
48668;BME280;34453;52.198;5.004;2023-05-21T12:42:36;101857.97;;;21.68;100.00
48668;BME280;34453;52.198;5.004;2023-05-21T12:45:08;101863.25;;;21.89;100.00
48668;BME280;34453;52.198;5.004;2023-05-21T12:47:35;101865.69;;;22.06;100.00
48668;BME280;34453;52.198;5.004;2023-05-21T12:50:06;101864.06;;;22.11;100.00
48668;BME280;34453;52.198;5.004;2023-05-21T12:52:33;101855.84;;;22.06;100.00
48668;BME280;34453;52.198;5.004;2023-05-21T12:55:00;101862.75;;;22.01;100.00
48668;BME280;34453;52.198;5.004;2023-05-21T12:57:34;101861.34;;;22.05;100.00